Time;durP1;ratioP1;P1;durP2;ratioP2;P2;SDS_P1;SDS_P2;PMS_P1;PMS_P2;Temp;Humidity;BMP_temperature;BMP_pressure;BME280_temperature;BME280_humidity;BME280_pressure;Samples;Min_cycle;Max_cycle;Signal;HPM_P1;HPM_P2
2023/01/17 00:01:29;;;;;;;4.88;0.60;;;3.60;99.90;;;;;;5083511;28;20070;-69
2023/01/17 00:12:08;;;;;;;3.35;0.47;;;3.60;99.90;;;;;;5066240;28;20480;-69
2023/01/17 00:14:33;;;;;;;4.72;0.50;;;3.60;99.90;;;;;;5077582;28;20040;-70
2023/01/17 00:17:00;;;;;;;6.53;0.60;;;3.60;99.90;;;;;;5046933;28;20437;-70
2023/01/17 01:34:08;;;;;;;6.60;0.60;;;2.60;99.90;;;;;;5080965;28;20055;-68
2023/01/17 01:36:34;;;;;;;2.15;0.22;;;2.50;99.90;;;;;;5061799;28;20485;-69
2023/01/17 01:39:00;;;;;;;6.30;0.32;;;2.60;99.90;;;;;;5075607;28;20141;-68
2023/01/17 01:41:25;;;;;;;7.68;0.50;;;2.60;99.90;;;;;;5061875;28;20040;-68
2023/01/17 01:43:53;;;;;;;5.95;0.47;;;2.60;99.90;;;;;;5066315;28;20076;-68
2023/01/17 01:46:28;;;;;;;4.28;0.38;;;2.60;99.90;;;;;;5077330;28;20112;-68
2023/01/17 01:48:58;;;;;;;8.50;0.45;;;2.60;99.90;;;;;;5079523;28;20045;-68
2023/01/17 01:51:30;;;;;;;4.68;0.38;;;2.70;99.90;;;;;;5074927;28;20040;-68
2023/01/17 01:54:10;;;;;;;3.97;0.30;;;2.60;99.90;;;;;;5079744;28;20365;-68
2023/01/17 01:56:36;;;;;;;5.30;0.25;;;2.60;99.90;;;;;;5063513;28;20096;-68
2023/01/17 01:59:05;;;;;;;8.82;0.47;;;2.60;99.90;;;;;;5062281;28;20406;-68
2023/01/17 02:01:32;;;;;;;4.30;0.30;;;2.60;99.90;;;;;;5059706;28;20044;-68
2023/01/17 02:03:57;;;;;;;4.65;0.40;;;2.60;99.90;;;;;;5085873;28;20040;-68
2023/01/17 02:06:34;;;;;;;4.97;0.20;;;2.60;99.90;;;;;;5067771;28;20492;-67
2023/01/17 02:09:05;;;;;;;4.60;0.30;;;2.50;99.90;;;;;;5081474;28;20086;-67
2023/01/17 02:11:33;;;;;;;6.53;0.43;;;2.40;99.90;;;;;;5080716;28;20504;-68
2023/01/17 02:13:59;;;;;;;3.30;0.40;;;2.30;99.90;;;;;;5084681;28;20491;-68
2023/01/17 02:16:37;;;;;;;3.30;0.40;;;2.30;99.90;;;;;;5060085;28;20051;-68
2023/01/17 02:19:40;;;;;;;4.25;0.60;;;2.30;99.90;;;;;;5080539;28;20031;-68
2023/01/17 02:22:27;;;;;;;5.00;0.40;;;2.30;99.90;;;;;;5001629;28;20044;-68
2023/01/17 02:25:10;;;;;;;4.45;0.40;;;2.30;99.90;;;;;;5082836;28;20120;-68
2023/01/17 02:27:51;;;;;;;3.92;0.63;;;2.30;99.90;;;;;;5062637;28;20084;-68
2023/01/17 02:30:36;;;;;;;5.15;0.43;;;2.30;99.90;;;;;;5058463;28;20066;-67
2023/01/17 02:33:31;;;;;;;4.18;0.30;;;2.30;99.90;;;;;;5079191;28;20036;-67
2023/01/17 02:36:11;;;;;;;7.25;0.55;;;2.30;99.90;;;;;;5080117;28;20124;-68
2023/01/17 02:38:52;;;;;;;1.13;0.30;;;2.20;99.90;;;;;;5068642;28;20055;-68
2023/01/17 02:41:42;;;;;;;5.35;0.50;;;2.20;99.90;;;;;;5075989;28;20051;-69
2023/01/17 02:44:14;;;;;;;3.13;0.20;;;2.30;99.90;;;;;;5080418;28;20044;-69
2023/01/17 02:46:58;;;;;;;3.97;0.30;;;2.30;99.90;;;;;;5058354;28;20067;-68
2023/01/17 02:49:28;;;;;;;7.50;0.30;;;2.30;99.90;;;;;;5080682;28;20047;-68
2023/01/17 02:52:24;;;;;;;8.90;0.40;;;2.20;99.90;;;;;;5064168;28;20055;-69
2023/01/17 02:55:08;;;;;;;7.53;0.50;;;2.20;99.90;;;;;;5065025;28;20043;-68
2023/01/17 02:57:46;;;;;;;3.05;0.38;;;2.30;99.90;;;;;;5079298;28;20051;-69
2023/01/17 03:00:43;;;;;;;5.07;0.30;;;2.30;99.90;;;;;;5077358;28;20046;-68
2023/01/17 03:03:44;;;;;;;6.45;0.50;;;2.30;99.90;;;;;;5052052;28;20041;-68
2023/01/17 03:06:35;;;;;;;5.18;0.73;;;2.30;99.90;;;;;;5087084;28;20040;-68
2023/01/17 03:09:02;;;;;;;5.72;0.60;;;2.30;99.90;;;;;;5080968;28;20056;-69
2023/01/17 03:11:28;;;;;;;9.52;0.85;;;2.30;99.90;;;;;;5055947;28;20135;-68
2023/01/17 03:13:55;;;;;;;5.32;0.40;;;2.40;99.90;;;;;;5082960;28;20151;-69
2023/01/17 03:16:24;;;;;;;5.40;0.50;;;2.40;99.90;;;;;;5064827;28;20442;-68
2023/01/17 03:18:50;;;;;;;2.53;0.30;;;2.40;99.90;;;;;;5079909;28;20444;-68
2023/01/17 03:21:15;;;;;;;5.47;0.40;;;2.30;99.90;;;;;;5067018;28;20036;-68
2023/01/17 03:23:41;;;;;;;4.00;0.30;;;2.40;99.90;;;;;;5061594;28;20477;-68
2023/01/17 03:26:07;;;;;;;3.67;0.68;;;2.40;99.90;;;;;;5063523;28;20075;-69
2023/01/17 03:28:33;;;;;;;3.92;0.30;;;2.30;99.90;;;;;;5084945;28;20043;-68
2023/01/17 03:30:58;;;;;;;3.15;0.30;;;2.30;99.90;;;;;;5069757;28;20044;-72
2023/01/17 03:33:25;;;;;;;5.78;0.35;;;2.30;99.90;;;;;;5062555;28;20051;-69
2023/01/17 03:35:51;;;;;;;6.20;0.35;;;2.30;99.90;;;;;;5065013;28;20464;-68
2023/01/17 03:38:18;;;;;;;4.93;0.38;;;2.20;99.90;;;;;;5064365;28;20128;-68
2023/01/17 03:40:43;;;;;;;4.13;0.57;;;2.10;99.90;;;;;;5088178;28;20032;-68
2023/01/17 03:43:09;;;;;;;2.83;0.40;;;2.10;99.90;;;;;;5083508;28;20061;-69
2023/01/17 03:45:35;;;;;;;5.00;0.40;;;2.10;99.90;;;;;;5066634;28;20036;-68
2023/01/17 03:48:01;;;;;;;3.15;0.30;;;2.10;99.90;;;;;;5083443;28;20084;-68
2023/01/17 03:50:26;;;;;;;2.53;0.30;;;2.00;99.90;;;;;;5080833;28;20301;-69
2023/01/17 03:52:52;;;;;;;5.95;0.40;;;2.00;99.90;;;;;;5089421;28;20155;-69
2023/01/17 03:55:18;;;;;;;8.13;0.40;;;2.00;99.90;;;;;;5077734;28;20067;-68
2023/01/17 03:57:43;;;;;;;4.97;0.30;;;2.00;99.90;;;;;;5070212;28;20032;-69
2023/01/17 04:00:10;;;;;;;3.65;0.30;;;2.00;99.90;;;;;;5088051;28;20074;-69
2023/01/17 04:02:36;;;;;;;3.05;0.25;;;1.90;99.90;;;;;;5081724;28;20169;-69
2023/01/17 04:05:02;;;;;;;5.13;0.50;;;1.90;99.90;;;;;;5081922;28;20116;-69
2023/01/17 04:07:28;;;;;;;6.47;0.43;;;2.00;99.90;;;;;;5070564;28;20083;-69
2023/01/17 04:09:53;;;;;;;5.05;0.50;;;2.00;99.90;;;;;;5064852;28;20064;-68
2023/01/17 04:12:19;;;;;;;4.40;0.40;;;2.00;99.90;;;;;;5055255;28;20051;-67
2023/01/17 04:14:45;;;;;;;5.60;0.60;;;1.90;99.90;;;;;;5049393;28;20083;-69
2023/01/17 04:17:15;;;;;;;5.10;0.60;;;2.00;99.90;;;;;;5070700;28;20036;-69
2023/01/17 04:19:41;;;;;;;6.90;0.30;;;1.90;99.90;;;;;;5063632;28;20482;-69
2023/01/17 04:22:07;;;;;;;6.28;0.73;;;1.90;99.90;;;;;;5070605;28;20124;-68
2023/01/17 04:24:33;;;;;;;2.42;0.25;;;1.80;99.90;;;;;;5043414;28;20481;-68
2023/01/17 04:26:58;;;;;;;5.30;0.60;;;1.80;99.90;;;;;;5070864;28;20041;-68
2023/01/17 04:29:24;;;;;;;6.03;0.75;;;1.70;99.90;;;;;;5075255;28;20384;-68
2023/01/17 04:31:50;;;;;;;10.10;0.52;;;1.70;99.90;;;;;;5073180;28;20035;-68
2023/01/17 04:34:16;;;;;;;6.55;0.50;;;1.60;99.90;;;;;;5076802;28;20135;-68
2023/01/17 04:36:42;;;;;;;6.05;0.30;;;1.60;99.90;;;;;;5073715;28;20162;-67
2023/01/17 04:39:07;;;;;;;1.73;0.63;;;1.60;99.90;;;;;;5067338;28;20037;-68
2023/01/17 04:41:33;;;;;;;6.05;0.47;;;1.50;99.90;;;;;;5048544;28;20045;-67
2023/01/17 04:43:59;;;;;;;4.68;0.63;;;1.50;99.90;;;;;;5071599;28;20041;-67
2023/01/17 04:46:25;;;;;;;5.25;0.40;;;1.50;99.90;;;;;;5049709;28;20052;-68
2023/01/17 04:48:50;;;;;;;4.97;0.60;;;1.40;99.90;;;;;;5052577;28;20044;-67
2023/01/17 04:51:16;;;;;;;6.72;0.50;;;1.30;99.90;;;;;;5066063;28;20448;-66
2023/01/17 04:53:42;;;;;;;8.15;0.40;;;1.40;99.90;;;;;;5057641;28;20044;-67
2023/01/17 04:56:07;;;;;;;6.15;0.60;;;1.30;99.90;;;;;;5044077;28;20047;-67
2023/01/17 04:58:33;;;;;;;8.57;0.60;;;1.40;99.90;;;;;;5047550;28;20041;-66
2023/01/17 05:01:04;;;;;;;10.35;0.60;;;1.30;99.90;;;;;;5044629;28;20047;-67
2023/01/17 05:03:30;;;;;;;6.78;0.65;;;1.20;99.90;;;;;;5063122;28;20036;-67
2023/01/17 05:05:56;;;;;;;10.55;0.52;;;1.20;99.90;;;;;;5048078;28;20083;-67
2023/01/17 05:08:22;;;;;;;10.73;0.70;;;1.20;99.90;;;;;;5066246;28;20060;-67
2023/01/17 05:10:47;;;;;;;2.60;0.40;;;1.10;99.90;;;;;;5068861;28;20037;-66
2023/01/17 05:13:14;;;;;;;6.55;0.60;;;1.10;99.90;;;;;;5083647;28;20063;-67
2023/01/17 05:15:40;;;;;;;6.68;0.75;;;1.00;99.90;;;;;;5087698;28;20032;-67
2023/01/17 05:18:07;;;;;;;11.70;0.60;;;1.00;99.90;;;;;;5061846;28;20214;-67
2023/01/17 05:20:34;;;;;;;3.10;0.50;;;1.00;99.90;;;;;;5082194;28;20044;-67
2023/01/17 05:23:00;;;;;;;4.50;0.57;;;0.90;99.90;;;;;;5080593;28;20067;-67
2023/01/17 05:25:31;;;;;;;8.95;0.80;;;0.90;99.90;;;;;;5067899;28;20558;-67
2023/01/17 05:27:58;;;;;;;6.88;0.68;;;0.90;99.90;;;;;;5080873;28;20040;-67
2023/01/17 05:30:25;;;;;;;8.95;0.77;;;0.80;99.90;;;;;;5083060;28;20046;-67
2023/01/17 05:32:53;;;;;;;6.55;0.40;;;0.80;99.90;;;;;;5084363;28;20194;-67
2023/01/17 05:35:22;;;;;;;8.98;0.50;;;0.80;99.90;;;;;;5086483;28;20139;-66
2023/01/17 05:37:49;;;;;;;3.42;0.40;;;0.70;99.90;;;;;;5067909;28;20051;-67
2023/01/17 05:40:27;;;;;;;5.80;0.40;;;0.70;99.90;;;;;;5083552;28;20034;-66
2023/01/17 05:42:57;;;;;;;3.83;0.40;;;0.70;99.90;;;;;;5068794;28;20502;-66
2023/01/17 05:45:24;;;;;;;3.13;0.43;;;0.70;99.90;;;;;;5084733;28;20036;-67
2023/01/17 05:47:52;;;;;;;9.70;0.60;;;0.70;99.90;;;;;;5070592;28;20050;-67
2023/01/17 05:50:24;;;;;;;6.22;0.40;;;0.70;99.90;;;;;;5066034;28;20106;-67
2023/01/17 05:52:58;;;;;;;4.05;0.68;;;0.60;99.90;;;;;;5072904;28;20097;-67
2023/01/17 05:55:26;;;;;;;7.22;0.90;;;0.60;99.90;;;;;;5071889;28;20048;-66
2023/01/17 05:57:53;;;;;;;4.25;0.70;;;0.60;99.90;;;;;;5064733;28;20040;-67
2023/01/17 06:00:19;;;;;;;7.20;0.70;;;0.50;99.90;;;;;;5071072;28;20048;-67
2023/01/17 06:02:46;;;;;;;4.93;0.43;;;0.50;99.90;;;;;;5086421;28;20032;-67
2023/01/17 06:05:12;;;;;;;7.47;0.77;;;0.50;99.90;;;;;;5067540;28;20043;-67
2023/01/17 06:07:38;;;;;;;9.90;0.77;;;0.40;99.90;;;;;;5081611;28;20050;-66
2023/01/17 06:10:04;;;;;;;8.07;0.70;;;0.40;99.90;;;;;;5084885;28;20145;-67
2023/01/17 06:12:31;;;;;;;8.70;0.68;;;0.40;99.90;;;;;;5087303;28;20052;-67
2023/01/17 06:14:56;;;;;;;10.20;0.70;;;0.30;99.90;;;;;;5066845;28;20113;-66
2023/01/17 06:17:22;;;;;;;6.35;0.43;;;0.40;99.90;;;;;;5085716;28;20036;-66
2023/01/17 06:19:48;;;;;;;6.05;0.60;;;0.40;99.90;;;;;;5062370;28;20489;-66
2023/01/17 06:22:14;;;;;;;8.27;0.55;;;0.40;99.90;;;;;;5082845;28;20088;-67
2023/01/17 06:24:39;;;;;;;4.90;0.50;;;0.30;99.90;;;;;;5061216;28;20090;-66
2023/01/17 06:27:08;;;;;;;7.60;0.80;;;0.30;99.90;;;;;;5078440;28;20143;-66
2023/01/17 06:29:34;;;;;;;8.25;0.60;;;0.40;99.90;;;;;;5078048;28;20041;-66
2023/01/17 06:31:59;;;;;;;5.82;0.40;;;0.40;99.90;;;;;;5079422;28;20040;-66
2023/01/17 06:34:25;;;;;;;3.15;0.50;;;0.40;99.90;;;;;;5079334;28;20044;-66
2023/01/17 06:36:51;;;;;;;8.20;0.40;;;0.40;99.90;;;;;;5078371;28;20135;-66
2023/01/17 06:39:16;;;;;;;4.55;0.50;;;0.30;99.90;;;;;;5084174;28;20062;-66
2023/01/17 06:41:42;;;;;;;5.35;0.35;;;0.30;99.90;;;;;;5089606;28;20036;-66
2023/01/17 06:44:08;;;;;;;4.25;0.20;;;0.30;99.90;;;;;;5088355;28;20032;-66
2023/01/17 06:46:34;;;;;;;6.50;1.17;;;0.30;99.90;;;;;;5090015;28;20048;-66
2023/01/17 06:49:00;;;;;;;4.72;0.50;;;0.30;99.90;;;;;;5088920;28;20040;-66
2023/01/17 06:51:26;;;;;;;3.45;0.35;;;0.30;99.90;;;;;;5069334;28;20045;-66
2023/01/17 06:53:52;;;;;;;4.75;0.45;;;0.30;99.90;;;;;;5090434;28;20086;-66
2023/01/17 06:56:18;;;;;;;5.00;0.30;;;0.40;99.90;;;;;;5085588;28;20044;-66
2023/01/17 06:58:50;;;;;;;3.67;0.40;;;0.40;99.90;;;;;;5087833;28;20063;-66
2023/01/17 07:01:17;;;;;;;4.30;0.75;;;0.50;99.90;;;;;;5088029;28;20150;-66
2023/01/17 07:03:43;;;;;;;1.17;0.25;;;0.40;99.90;;;;;;5086708;28;20041;-66
2023/01/17 07:06:09;;;;;;;3.28;0.40;;;0.50;99.90;;;;;;5064054;28;20082;-66
2023/01/17 07:08:35;;;;;;;5.07;0.40;;;0.40;99.90;;;;;;5086923;28;20035;-66
2023/01/17 07:11:03;;;;;;;3.72;0.35;;;0.40;99.90;;;;;;5064989;28;20470;-66
2023/01/17 07:13:29;;;;;;;4.38;0.30;;;0.40;99.90;;;;;;5066328;28;20049;-66
2023/01/17 07:15:58;;;;;;;5.15;0.35;;;0.40;99.90;;;;;;5082660;28;20036;-66
2023/01/17 07:18:24;;;;;;;5.15;0.90;;;0.40;99.90;;;;;;5082214;28;20035;-66
2023/01/17 07:20:50;;;;;;;2.80;0.35;;;0.30;99.90;;;;;;5083373;28;20112;-66
2023/01/17 07:23:17;;;;;;;3.95;0.22;;;0.30;99.90;;;;;;5082292;28;20328;-66
2023/01/17 07:25:43;;;;;;;6.45;0.40;;;0.30;99.90;;;;;;5076892;28;20102;-66
2023/01/17 07:28:08;;;;;;;5.47;0.30;;;0.30;99.90;;;;;;5081942;28;20696;-66
2023/01/17 07:30:35;;;;;;;3.90;0.60;;;0.30;99.90;;;;;;5080634;28;20074;-66
2023/01/17 07:33:01;;;;;;;10.95;0.95;;;0.30;99.90;;;;;;5079625;28;20128;-66
2023/01/17 07:35:27;;;;;;;6.30;0.40;;;0.30;99.90;;;;;;5079239;28;20261;-66
2023/01/17 07:37:53;;;;;;;5.30;0.80;;;0.40;99.90;;;;;;5078765;28;20083;-66
2023/01/17 07:40:21;;;;;;;3.22;0.63;;;0.40;99.90;;;;;;5061729;28;20037;-66
2023/01/17 07:42:46;;;;;;;6.60;0.40;;;0.40;99.90;;;;;;5077354;28;20055;-66
2023/01/17 07:45:14;;;;;;;6.47;1.25;;;0.40;99.90;;;;;;5067371;28;20392;-66
2023/01/17 07:47:40;;;;;;;7.30;0.70;;;0.40;99.90;;;;;;5066919;28;20036;-66
2023/01/17 07:50:07;;;;;;;5.68;0.30;;;0.40;99.90;;;;;;5083636;28;20040;-66
2023/01/17 07:52:33;;;;;;;6.90;0.68;;;0.40;99.90;;;;;;5058641;28;20479;-66
2023/01/17 07:54:59;;;;;;;5.10;0.60;;;0.40;99.90;;;;;;5083722;28;20087;-66
2023/01/17 07:57:25;;;;;;;7.15;0.98;;;0.50;99.90;;;;;;5083835;28;20472;-66
2023/01/17 07:59:51;;;;;;;5.10;0.88;;;0.50;99.90;;;;;;5087389;28;20107;-66
2023/01/17 08:02:20;;;;;;;5.45;0.55;;;0.40;99.90;;;;;;5087195;28;20120;-66
2023/01/17 08:04:46;;;;;;;5.32;0.65;;;0.50;99.90;;;;;;5082790;28;20432;-66
2023/01/17 08:07:13;;;;;;;5.90;0.40;;;0.50;99.90;;;;;;5082529;28;20468;-66
2023/01/17 08:09:40;;;;;;;3.05;0.40;;;0.50;99.90;;;;;;5080411;28;20091;-66
2023/01/17 08:12:06;;;;;;;6.85;0.50;;;0.60;99.90;;;;;;5083913;28;20081;-66
2023/01/17 08:14:31;;;;;;;5.15;0.45;;;0.60;99.90;;;;;;5068181;28;20127;-66
2023/01/17 08:17:10;;;;;;;5.70;0.63;;;0.70;99.90;;;;;;5084432;28;20044;-66
2023/01/17 08:19:36;;;;;;;4.70;0.80;;;0.80;99.90;;;;;;5083490;28;20036;-66
2023/01/17 08:22:02;;;;;;;4.30;0.70;;;0.90;99.90;;;;;;5075418;28;20504;-66
2023/01/17 08:24:28;;;;;;;6.30;0.75;;;1.00;99.90;;;;;;5087231;28;20107;-66
2023/01/17 08:26:55;;;;;;;2.95;0.50;;;1.10;99.90;;;;;;5068279;28;20051;-66
2023/01/17 08:29:21;;;;;;;4.40;0.40;;;1.10;99.90;;;;;;5083712;28;20067;-66
2023/01/17 08:31:47;;;;;;;5.10;0.60;;;1.10;99.90;;;;;;5085204;28;20634;-66
2023/01/17 08:34:15;;;;;;;6.72;0.47;;;1.10;99.90;;;;;;5082161;28;20142;-66
2023/01/17 08:36:41;;;;;;;4.25;0.32;;;1.10;99.90;;;;;;5085227;28;20044;-66
2023/01/17 08:39:08;;;;;;;6.32;0.75;;;1.10;99.90;;;;;;5084140;28;20044;-66
2023/01/17 08:41:34;;;;;;;4.20;0.47;;;1.20;99.90;;;;;;5082490;28;20040;-66
2023/01/17 08:44:01;;;;;;;6.85;0.50;;;1.30;99.90;;;;;;5083617;28;20059;-66
2023/01/17 08:46:27;;;;;;;3.30;0.60;;;1.30;99.90;;;;;;5084721;28;20036;-66
2023/01/17 08:48:54;;;;;;;5.28;0.90;;;1.40;99.90;;;;;;5066167;28;20039;-66
2023/01/17 08:51:23;;;;;;;3.45;0.43;;;1.40;99.90;;;;;;5067489;28;20074;-66
2023/01/17 08:53:49;;;;;;;4.55;0.40;;;1.30;99.90;;;;;;5068376;28;20047;-66
2023/01/17 08:56:15;;;;;;;7.55;0.68;;;1.40;99.90;;;;;;5083757;28;20094;-66
2023/01/17 08:58:40;;;;;;;7.18;0.90;;;1.30;99.90;;;;;;5082948;28;20041;-66
2023/01/17 09:01:06;;;;;;;4.22;0.57;;;1.40;99.90;;;;;;5086011;28;20036;-66
2023/01/17 09:03:33;;;;;;;7.78;0.77;;;1.50;99.90;;;;;;5065730;28;20036;-66
2023/01/17 09:06:01;;;;;;;4.95;1.05;;;1.60;99.90;;;;;;5067853;28;20487;-66
2023/01/17 09:08:26;;;;;;;5.80;0.80;;;1.70;99.90;;;;;;5082898;28;20046;-66
2023/01/17 09:10:52;;;;;;;5.28;0.77;;;1.80;99.90;;;;;;5085947;28;21249;-66
2023/01/17 09:13:18;;;;;;;6.35;0.75;;;1.80;99.90;;;;;;5087635;28;20040;-66
2023/01/17 09:15:43;;;;;;;7.97;1.00;;;1.80;99.90;;;;;;5079524;28;20145;-66
2023/01/17 09:18:12;;;;;;;8.30;0.77;;;1.80;99.90;;;;;;5083797;28;20044;-66
2023/01/17 09:20:37;;;;;;;6.75;0.95;;;1.70;99.90;;;;;;5075661;28;20036;-64
2023/01/17 09:23:03;;;;;;;4.93;0.82;;;1.70;99.90;;;;;;5081718;28;20177;-64
2023/01/17 09:25:29;;;;;;;4.30;0.98;;;1.70;99.90;;;;;;5061115;28;20113;-64
2023/01/17 09:27:55;;;;;;;4.25;0.82;;;1.70;99.90;;;;;;5076085;28;20066;-63
2023/01/17 09:30:21;;;;;;;6.78;1.15;;;1.60;99.90;;;;;;5078550;28;20479;-64
2023/01/17 09:32:53;;;;;;;5.38;1.00;;;1.70;99.90;;;;;;5077046;28;20465;-64
2023/01/17 09:35:19;;;;;;;7.28;1.35;;;1.70;99.90;;;;;;5080559;28;20039;-64
2023/01/17 09:37:49;;;;;;;7.50;0.90;;;1.70;99.90;;;;;;5073935;28;20400;-63
2023/01/17 09:40:19;;;;;;;5.97;1.10;;;1.70;99.90;;;;;;5057574;28;20056;-64
2023/01/17 09:42:48;;;;;;;5.45;1.42;;;1.80;99.90;;;;;;5063726;28;20044;-64
2023/01/17 09:45:17;;;;;;;9.07;1.42;;;1.80;99.90;;;;;;5076420;28;20450;-63
2023/01/17 09:47:47;;;;;;;6.13;1.33;;;1.80;99.90;;;;;;5073713;28;20040;-63
2023/01/17 09:50:33;;;;;;;8.25;1.85;;;1.80;99.90;;;;;;5076402;28;20455;-64
2023/01/17 09:53:02;;;;;;;3.20;0.77;;;1.90;99.90;;;;;;5079740;28;20141;-63
2023/01/17 09:55:39;;;;;;;5.53;0.98;;;1.90;99.90;;;;;;5086204;28;20043;-63
2023/01/17 09:58:11;;;;;;;4.10;1.10;;;1.90;99.90;;;;;;5078427;28;20126;-63
2023/01/17 10:01:13;;;;;;;3.30;1.25;;;2.00;99.90;;;;;;5081372;28;20143;-63
2023/01/17 10:03:42;;;;;;;7.18;1.20;;;2.00;99.90;;;;;;5044008;28;20040;-63
2023/01/17 10:06:18;;;;;;;4.22;0.95;;;2.00;99.90;;;;;;5072755;28;20081;-63
2023/01/17 10:09:06;;;;;;;6.45;1.08;;;2.10;99.90;;;;;;5077160;28;20047;-63
2023/01/17 10:12:19;;;;;;;8.07;1.55;;;2.10;99.90;;;;;;5080378;28;20066;-63
2023/01/17 10:15:10;;;;;;;5.53;0.88;;;2.10;99.90;;;;;;4969696;28;20046;-63
2023/01/17 10:17:45;;;;;;;7.65;1.08;;;2.20;99.90;;;;;;5075878;28;20116;-63
2023/01/17 10:20:32;;;;;;;3.88;0.70;;;2.20;99.90;;;;;;5080913;28;20071;-63
2023/01/17 10:23:29;;;;;;;4.32;0.98;;;2.20;99.90;;;;;;5074676;28;20445;-63
2023/01/17 10:26:17;;;;;;;6.15;1.17;;;2.30;99.90;;;;;;5078278;28;20114;-64
2023/01/17 10:28:49;;;;;;;5.32;1.10;;;2.30;99.90;;;;;;5076484;28;20452;-63
2023/01/17 10:31:15;;;;;;;4.05;0.90;;;2.30;99.90;;;;;;5076711;28;20036;-63
2023/01/17 10:33:55;;;;;;;5.40;1.00;;;2.40;99.90;;;;;;5073443;28;20043;-63
2023/01/17 10:36:24;;;;;;;2.78;0.70;;;2.40;99.90;;;;;;5063222;28;20083;-63
2023/01/17 10:38:56;;;;;;;3.13;0.73;;;2.40;99.90;;;;;;5077025;28;20081;-64
2023/01/17 10:41:41;;;;;;;7.35;0.93;;;2.40;99.90;;;;;;5079314;28;20492;-64
2023/01/17 10:44:14;;;;;;;6.35;1.17;;;2.50;99.90;;;;;;5076599;28;20189;-64
2023/01/17 10:46:46;;;;;;;7.07;1.30;;;2.50;99.90;;;;;;5077396;28;20058;-63
2023/01/17 10:49:18;;;;;;;5.32;0.90;;;2.50;99.90;;;;;;5079160;28;20262;-63
2023/01/17 10:51:59;;;;;;;6.68;1.15;;;2.70;99.90;;;;;;5058948;28;20048;-63
2023/01/17 10:55:03;;;;;;;6.82;0.75;;;2.60;99.90;;;;;;5056066;28;20071;-63
2023/01/17 10:57:52;;;;;;;6.35;0.90;;;2.70;99.90;;;;;;5068289;28;20135;-63
2023/01/17 11:00:57;;;;;;;7.32;1.65;;;2.80;99.90;;;;;;5080170;28;20235;-64
2023/01/17 11:03:23;;;;;;;5.90;0.93;;;2.90;99.90;;;;;;5074922;28;20037;-63
2023/01/17 11:06:25;;;;;;;4.82;1.00;;;3.00;99.90;;;;;;5078318;28;20044;-63
2023/01/17 11:08:57;;;;;;;6.03;0.70;;;3.10;99.90;;;;;;5078152;28;20033;-64
2023/01/17 11:11:29;;;;;;;6.80;1.17;;;3.10;99.90;;;;;;5078507;28;20492;-64
2023/01/17 11:13:59;;;;;;;6.05;1.35;;;3.20;99.90;;;;;;5074714;28;20048;-63
2023/01/17 11:16:31;;;;;;;5.53;0.80;;;3.20;99.90;;;;;;5078501;28;20415;-63
2023/01/17 11:19:26;;;;;;;6.57;1.23;;;3.20;99.90;;;;;;5061971;28;20391;-64
2023/01/17 11:21:54;;;;;;;;;;;3.30;99.90;;;;;;5077323;28;20048;-65
2023/01/17 11:24:47;;;;;;;3.63;0.82;;;3.30;99.90;;;;;;5060605;28;20520;-64
2023/01/17 11:27:28;;;;;;;5.95;0.90;;;3.30;99.90;;;;;;5081398;28;20064;-63
2023/01/17 11:30:15;;;;;;;8.65;1.17;;;3.40;99.90;;;;;;5061308;28;20052;-64
2023/01/17 11:32:52;;;;;;;4.68;0.90;;;3.50;99.90;;;;;;5079684;28;20075;-64
2023/01/17 11:35:29;;;;;;;4.30;0.93;;;3.50;99.90;;;;;;5079505;28;20381;-64
2023/01/17 11:38:05;;;;;;;5.57;1.27;;;3.50;99.90;;;;;;5086646;28;20115;-64
2023/01/17 11:40:42;;;;;;;4.53;1.30;;;3.40;99.90;;;;;;5077933;28;20467;-64
2023/01/17 11:43:11;;;;;;;7.15;1.20;;;3.40;99.90;;;;;;5066523;28;20055;-63
2023/01/17 11:45:39;;;;;;;4.00;1.13;;;3.40;99.90;;;;;;5077654;28;20040;-64
2023/01/17 11:48:12;;;;;;;4.65;1.00;;;3.40;99.90;;;;;;5086235;28;20044;-63
2023/01/17 11:50:57;;;;;;;8.52;1.23;;;3.50;99.90;;;;;;5079645;28;20048;-64
2023/01/17 11:53:27;;;;;;;4.60;1.15;;;3.40;99.90;;;;;;5083600;28;20149;-64
2023/01/17 11:56:08;;;;;;;6.95;1.08;;;3.40;99.90;;;;;;5066984;28;20511;-64
2023/01/17 11:58:37;;;;;;;5.53;1.27;;;3.50;99.90;;;;;;5064182;28;20079;-64
2023/01/17 12:01:31;;;;;;;6.35;0.93;;;3.50;99.90;;;;;;5087983;28;20057;-64
2023/01/17 12:04:18;;;;;;;4.88;0.90;;;3.50;99.90;;;;;;5081998;28;20040;-65
2023/01/17 12:07:06;;;;;;;5.80;1.15;;;3.50;99.90;;;;;;5082629;28;20154;-64
2023/01/17 12:10:07;;;;;;;5.80;1.00;;;3.60;99.90;;;;;;5081798;28;20483;-64
2023/01/17 12:15:48;;;;;;;2.72;0.77;;;3.50;99.90;;;;;;5079159;28;20036;-64
2023/01/17 12:18:29;;;;;;;6.20;1.00;;;3.50;99.90;;;;;;5069140;28;20623;-64
2023/01/17 12:21:32;;;;;;;9.13;1.00;;;3.50;99.90;;;;;;5081504;28;20041;-64
2023/01/17 12:24:37;;;;;;;3.78;1.20;;;3.50;99.90;;;;;;5081864;28;20032;-64
2023/01/17 12:27:15;;;;;;;8.20;1.58;;;3.50;99.90;;;;;;5077641;28;20032;-63
2023/01/17 12:30:09;;;;;;;8.90;1.38;;;3.50;99.90;;;;;;5081711;28;20044;-64
2023/01/17 12:33:18;;;;;;;6.60;1.20;;;3.50;99.90;;;;;;5083962;28;20052;-64
2023/01/17 12:35:57;;;;;;;5.45;1.00;;;3.50;99.90;;;;;;5067982;28;20077;-64
2023/01/17 12:38:34;;;;;;;2.70;0.68;;;3.60;99.90;;;;;;5064122;28;20051;-64
2023/01/17 12:41:25;;;;;;;4.25;0.95;;;3.70;99.90;;;;;;5052314;28;20414;-65
2023/01/17 12:43:56;;;;;;;3.42;0.80;;;3.70;99.90;;;;;;5083334;28;20472;-64
2023/01/17 12:46:56;;;;;;;5.95;1.10;;;3.70;99.90;;;;;;5080195;28;20115;-64
2023/01/17 12:49:24;;;;;;;2.90;0.80;;;3.70;99.90;;;;;;5081065;28;20044;-64
2023/01/17 12:52:11;;;;;;;3.60;1.13;;;3.70;99.90;;;;;;5076394;28;20048;-64
2023/01/17 12:54:41;;;;;;;3.05;0.70;;;3.80;99.90;;;;;;5079249;28;20123;-65
2023/01/17 12:57:17;;;;;;;2.63;1.05;;;3.70;99.90;;;;;;5079372;28;20052;-64
2023/01/17 13:00:22;;;;;;;5.57;1.65;;;3.70;99.90;;;;;;5083516;28;20420;-64
2023/01/17 13:03:07;;;;;;;3.83;1.20;;;3.70;99.90;;;;;;5079458;28;20113;-64
2023/01/17 13:05:40;;;;;;;5.32;1.08;;;3.70;99.90;;;;;;5080567;28;20122;-65
2023/01/17 13:08:31;;;;;;;3.65;0.90;;;3.70;99.90;;;;;;5075290;28;20036;-64
2023/01/17 13:11:16;;;;;;;4.05;1.27;;;3.70;99.90;;;;;;5079764;28;20157;-64
2023/01/17 13:13:42;;;;;;;5.35;1.10;;;3.70;99.90;;;;;;5075958;28;20093;-64
2023/01/17 13:16:16;;;;;;;4.03;1.20;;;3.70;99.90;;;;;;5082935;28;20390;-64
2023/01/17 13:18:47;;;;;;;3.77;1.00;;;3.80;99.90;;;;;;5083700;28;20041;-65
2023/01/17 13:21:35;;;;;;;5.18;1.23;;;3.80;99.90;;;;;;5082704;28;20048;-65
2023/01/17 13:24:35;;;;;;;6.03;1.23;;;4.00;99.90;;;;;;5063461;28;20039;-64
2023/01/17 13:27:25;;;;;;;5.00;1.55;;;4.10;99.90;;;;;;5076461;28;20813;-65
2023/01/17 13:30:14;;;;;;;4.45;0.93;;;4.10;99.90;;;;;;5064349;28;20127;-64
2023/01/17 13:32:57;;;;;;;7.53;1.02;;;4.10;99.90;;;;;;5065894;28;20054;-64
2023/01/17 13:35:46;;;;;;;5.25;0.80;;;4.10;99.90;;;;;;5082932;28;20162;-65
2023/01/17 13:38:53;;;;;;;3.25;0.80;;;4.00;99.90;;;;;;5084050;28;20150;-65
2023/01/17 13:41:37;;;;;;;4.72;0.50;;;3.90;99.90;;;;;;5066331;28;20036;-66
2023/01/17 13:44:21;;;;;;;4.28;0.50;;;3.80;99.90;;;;;;5084224;28;20043;-65
2023/01/17 13:47:03;;;;;;;2.10;0.30;;;3.70;99.90;;;;;;5076701;28;20051;-66
2023/01/17 13:49:29;;;;;;;4.88;0.52;;;3.70;99.90;;;;;;5059064;28;20569;-65
2023/01/17 13:52:30;;;;;;;2.88;0.70;;;3.60;99.90;;;;;;5077547;28;20044;-65
2023/01/17 13:55:01;;;;;;;3.63;0.75;;;3.60;99.90;;;;;;5063163;28;20115;-65
2023/01/17 13:57:31;;;;;;;3.88;0.52;;;3.60;99.90;;;;;;5082948;28;20040;-65
2023/01/17 14:00:26;;;;;;;2.75;0.60;;;3.70;99.90;;;;;;5079472;28;20600;-65
2023/01/17 14:02:53;;;;;;;2.35;0.60;;;3.70;99.90;;;;;;5036920;28;20178;-65
2023/01/17 14:05:30;;;;;;;5.10;0.52;;;3.70;99.90;;;;;;5058350;28;20048;-66
2023/01/17 14:08:03;;;;;;;3.03;0.70;;;3.70;99.90;;;;;;5059663;28;20054;-65
2023/01/17 14:10:29;;;;;;;4.07;1.20;;;3.70;99.90;;;;;;5079314;28;20041;-62
2023/01/17 14:12:55;;;;;;;6.63;0.63;;;3.60;99.90;;;;;;5075924;28;20200;-64
2023/01/17 14:15:24;;;;;;;6.40;0.88;;;3.50;99.90;;;;;;5059536;28;20119;-64
2023/01/17 14:17:56;;;;;;;4.50;0.60;;;3.50;99.90;;;;;;5062514;28;20439;-64
2023/01/17 14:20:31;;;;;;;5.10;1.10;;;3.50;99.90;;;;;;5077292;28;20072;-64
2023/01/17 14:23:00;;;;;;;6.45;1.42;;;3.50;99.90;;;;;;5077644;28;20039;-64
2023/01/17 14:25:44;;;;;;;7.68;1.00;;;3.40;99.90;;;;;;5057499;28;20041;-65
2023/01/17 14:28:21;;;;;;;4.32;1.10;;;3.40;99.90;;;;;;5083390;28;20047;-64
2023/01/17 14:30:53;;;;;;;4.60;1.00;;;3.40;99.90;;;;;;5080001;28;20049;-62
2023/01/17 14:33:33;;;;;;;3.25;0.80;;;3.30;99.90;;;;;;5077478;28;20056;-63
2023/01/17 14:36:05;;;;;;;7.40;0.77;;;3.30;99.90;;;;;;5077859;28;20032;-62
2023/01/17 14:38:32;;;;;;;6.22;1.00;;;3.20;99.90;;;;;;5063258;28;20488;-62
2023/01/17 14:41:08;;;;;;;6.38;1.92;;;3.20;99.90;;;;;;5073120;28;20098;-62
2023/01/17 14:43:42;;;;;;;6.22;1.50;;;3.20;99.90;;;;;;5079443;28;20028;-63
2023/01/17 14:46:25;;;;;;;8.38;1.38;;;3.10;99.90;;;;;;5082855;28;20043;-62
2023/01/17 14:49:14;;;;;;;2.63;1.00;;;3.10;99.90;;;;;;5083630;28;20078;-63
2023/01/17 14:51:40;;;;;;;4.90;1.00;;;3.00;99.90;;;;;;5077416;28;20032;-63
2023/01/17 14:54:20;;;;;;;4.97;1.00;;;2.90;99.90;;;;;;5082295;28;20032;-62